Gerald R Ford International Airport (GRR)


Airport Diagram
Current Weather/Forecast (MVFR Conditions)
METAR KGRR 162253Z 23008KT 10SM OVC014 01/M02 A2958 RMK AO2 SNE12 SLP026 P0000 T00111017 $
TAF KGRR 162259Z 1623/1718 23008KT P6SM OVC014 TEMPO 1623/1701 2SM -SHSN FM170100 30009KT 2SM -SN BR OVC012 FM170900 26005KT 4SM -SN BR OVC007 FM171300 27004KT 1 1/2SM -SN BR OVC007

All Charts
General
Chart Name Download
AIRPORT DIAGRAM
TAKEOFF MINIMUMS
ALTERNATE MINIMUMS
RADAR MINIMUMS
HOT SPOT

Approaches
Chart Name Download
ILS OR LOC RWY 08R
ILS OR LOC RWY 26L
ILS OR LOC RWY 35
ILS RWY 35 (SA CAT I - II)
RNAV (GPS) RWY 08L
RNAV (GPS) RWY 08R
RNAV (GPS) RWY 17
RNAV (GPS) RWY 26L
RNAV (GPS) RWY 26R
RNAV (GPS) RWY 35
VOR RWY 17